| time (UTC) | temp F | wind direction | speed MPH | gust MPH | rain 1hr in | rain 24hr in | rain mn in | humidity % | barometer mb |
| 20260510101520 | 61 | 288 | 0.0 | 0.0 | 0.07 | 0.27 | 0.07 | 91 | 1008.8 |
| 20260510100020 | 62 | 263 | 0.0 | 0.0 | 0.02 | 0.22 | 0.02 | 90 | 1009.1 |
| 20260510094532 | 62 | 338 | 0.0 | 0.0 | 0.01 | 0.21 | 0.01 | 89 | 1008.6 |
| 20260510093017 | 62 | 145 | 0.0 | 0.0 | 0.00 | 0.20 | 0.00 | 88 | 1008.2 |
| 20260510091517 | 62 | 145 | 0.0 | 0.0 | 0.00 | 0.20 | 0.00 | 88 | 1008.6 |
| 20260510090016 | 62 | 145 | 0.0 | 0.0 | 0.00 | 0.20 | 0.00 | 87 | 1008.3 |
| 20260510084514 | 62 | 157 | 0.0 | 0.0 | 0.00 | 0.20 | 0.00 | 86 | 1008.3 |
| 20260510083013 | 62 | 129 | 0.0 | 0.0 | 0.00 | 0.20 | 0.00 | 85 | 1008.7 |
| 20260510081513 | 62 | 142 | 0.0 | 0.0 | 0.00 | 0.20 | 0.00 | 84 | 1008.6 |
| 20260510080032 | 62 | 121 | 0.0 | 0.0 | 0.00 | 0.20 | 0.00 | 83 | 1008.7 |
| 20260510074512 | 62 | 146 | 0.0 | 0.0 | 0.00 | 0.20 | 0.00 | 83 | 1008.5 |
| 20260510073013 | 62 | 151 | 0.0 | 0.0 | 0.00 | 0.20 | 0.00 | 83 | 1008.6 |
| 20260510071513 | 62 | 149 | 0.0 | 0.0 | 0.00 | 0.20 | 0.00 | 84 | 1008.4 |
| 20260510070009 | 61 | 115 | 0.0 | 0.0 | 0.00 | 0.20 | 0.00 | 85 | 1008.5 |
| 20260510064510 | 61 | 128 | 0.0 | 0.0 | 0.00 | 0.20 | 0.00 | 86 | 1009.3 |
| 20260510063006 | 61 | 103 | 0.0 | 0.0 | 0.00 | 0.20 | 0.00 | 86 | 1010.4 |
| 20260510061506 | 62 | 69 | 0.0 | 0.0 | 0.00 | 0.20 | 0.00 | 85 | 1011.2 |
| 20260510060005 | 61 | 113 | 0.0 | 0.0 | 0.00 | 0.20 | 0.00 | 85 | 1010.9 |
| 20260510054601 | 61 | 76 | 0.0 | 0.0 | 0.00 | 0.20 | 0.00 | 86 | 1010.7 |
| 20260510053058 | 61 | 46 | 0.0 | 0.0 | 0.01 | 0.20 | 0.00 | 87 | 1010.0 |
| 20260510051604 | 62 | 346 | 0.0 | 0.0 | 0.12 | 0.20 | 0.00 | 87 | 1010.5 |
| 20260510044546 | 64 | 53 | 0.0 | 0.0 | 0.19 | 0.20 | 0.20 | 86 | 1009.1 |
| 20260510043048 | 65 | 355 | 0.0 | 0.0 | 0.18 | 0.19 | 0.19 | 82 | 1010.0 |
| 20260510041546 | 68 | 360 | 0.0 | 0.0 | 0.07 | 0.08 | 0.08 | 74 | 1011.9 |
| 20260510040042 | 72 | 267 | 0.0 | 1.0 | 0.01 | 0.02 | 0.02 | 61 | 1010.9 |
| 20260510034538 | 74 | 21 | 0.0 | 0.0 | 0.00 | 0.01 | 0.01 | 51 | 1008.9 |
| 20260510033047 | 75 | 103 | 0.0 | 0.0 | 0.00 | 0.01 | 0.01 | 51 | 1007.1 |
| 20260510031539 | 75 | 121 | 0.0 | 0.0 | 0.00 | 0.01 | 0.01 | 50 | 1005.6 |
| 20260510030036 | 76 | 146 | 0.0 | 0.0 | 0.00 | 0.01 | 0.01 | 49 | 1005.5 |
| 20260510024536 | 77 | 80 | 0.0 | 0.0 | 0.00 | 0.01 | 0.01 | 48 | 1005.9 |
| 20260510023035 | 77 | 133 | 0.0 | 0.0 | 0.00 | 0.01 | 0.01 | 48 | 1005.9 |
| 20260510021611 | 77 | 156 | 0.0 | 0.0 | 0.00 | 0.01 | 0.01 | 48 | 1005.7 |
| 20260510020035 | 78 | 153 | 0.0 | 0.0 | 0.00 | 0.01 | 0.01 | 48 | 1005.0 |
| 20260510014547 | 78 | 133 | 0.0 | 0.0 | 0.00 | 0.01 | 0.01 | 46 | 1004.3 |
| 20260510013034 | 79 | 121 | 0.0 | 0.0 | 0.00 | 0.01 | 0.01 | 45 | 1004.1 |
| 20260510011533 | 79 | 145 | 0.0 | 0.0 | 0.00 | 0.01 | 0.01 | 44 | 1004.3 |
| 20260510010042 | 80 | 159 | 0.0 | 0.0 | 0.00 | 0.01 | 0.01 | 43 | 1004.1 |
| 20260510004531 | 81 | 138 | 0.0 | 0.0 | 0.00 | 0.01 | 0.01 | 42 | 1004.4 |
| 20260510003031 | 81 | 123 | 0.0 | 0.0 | 0.00 | 0.01 | 0.01 | 43 | 1004.3 |
| 20260510001533 | 82 | 156 | 0.0 | 0.0 | 0.00 | 0.01 | 0.01 | 42 | 1004.4 |
| 20260510000030 | 83 | 154 | 0.0 | 0.0 | 0.00 | 0.01 | 0.01 | 41 | 1004.4 |
| 20260509234528 | 84 | 154 | 0.0 | 0.0 | 0.00 | 0.01 | 0.01 | 38 | 1004.4 |
| 20260509233032 | 85 | 148 | 0.0 | 0.0 | 0.00 | 0.01 | 0.01 | 38 | 1004.5 |
| 20260509231524 | 85 | 155 | 0.0 | 0.0 | 0.00 | 0.01 | 0.01 | 34 | 1004.5 |
| 20260509230034 | 85 | 163 | 0.0 | 0.0 | 0.00 | 0.01 | 0.01 | 34 | 1004.7 |
| 20260509224522 | 85 | 104 | 0.0 | 0.0 | 0.00 | 0.22 | 0.01 | 34 | 1004.9 |
| 20260509223018 | 86 | 152 | 0.0 | 0.0 | 0.00 | 0.22 | 0.01 | 35 | 1005.2 |
| 20260509221517 | 86 | 145 | 0.0 | 1.0 | 0.00 | 0.22 | 0.01 | 32 | 1005.4 |
| 20260509220019 | 86 | 104 | 0.0 | 0.0 | 0.00 | 0.22 | 0.01 | 32 | 1005.5 |
| 20260509214515 | 86 | 13 | 0.0 | 0.0 | 0.00 | 0.22 | 0.01 | 36 | 1005.4 |
| 20260509213018 | 86 | 146 | 0.0 | 0.0 | 0.00 | 0.22 | 0.01 | 35 | 1005.5 |
| 20260509211512 | 85 | 200 | 0.0 | 0.0 | 0.00 | 0.22 | 0.01 | 35 | 1005.8 |
| 20260509210010 | 85 | 173 | 0.0 | 0.0 | 0.00 | 0.22 | 0.01 | 34 | 1005.9 |
| 20260509204509 | 85 | 180 | 0.0 | 0.0 | 0.00 | 0.22 | 0.01 | 36 | 1006.0 |
| 20260509203007 | 86 | 141 | 0.0 | 0.0 | 0.00 | 0.22 | 0.01 | 35 | 1006.1 |
| 20260509201510 | 85 | 138 | 0.0 | 0.0 | 0.00 | 0.22 | 0.01 | 34 | 1006.3 |
| 20260509200001 | 85 | 156 | 0.0 | 0.0 | 0.00 | 0.22 | 0.01 | 35 | 1006.5 |
| 20260509194602 | 85 | 79 | 0.0 | 0.0 | 0.00 | 0.22 | 0.01 | 33 | 1006.7 |
| 20260509193057 | 84 | 103 | 0.0 | 0.0 | 0.00 | 0.22 | 0.01 | 35 | 1006.9 |
| 20260509191607 | 84 | 81 | 0.0 | 0.0 | 0.00 | 0.22 | 0.01 | 36 | 1007.0 |
| 20260509190054 | 84 | 71 | 0.0 | 0.0 | 0.00 | 0.22 | 0.01 | 35 | 1007.2 |
| 20260509184558 | 83 | 126 | 0.0 | 0.0 | 0.00 | 0.22 | 0.01 | 37 | 1007.5 |
| 20260509183055 | 83 | 119 | 0.0 | 0.0 | 0.00 | 0.22 | 0.01 | 35 | 1007.6 |
| 20260509181553 | 83 | 307 | 0.0 | 0.0 | 0.00 | 0.22 | 0.01 | 40 | 1007.8 |
| 20260509180055 | 83 | 152 | 0.0 | 0.0 | 0.00 | 0.22 | 0.01 | 37 | 1008.0 |
| 20260509174547 | 82 | 140 | 0.0 | 0.0 | 0.00 | 0.22 | 0.01 | 43 | 1008.2 |
| 20260509173053 | 81 | 91 | 0.0 | 0.0 | 0.00 | 0.22 | 0.01 | 41 | 1008.4 |
| 20260509171540 | 80 | 161 | 0.0 | 0.0 | 0.00 | 0.22 | 0.01 | 43 | 1008.5 |
| 20260509170033 | 79 | 142 | 0.0 | 0.0 | 0.00 | 0.22 | 0.01 | 52 | 1008.7 |
| 20260509164529 | 77 | 165 | 0.0 | 0.0 | 0.00 | 0.22 | 0.01 | 58 | 1008.6 |
| 20260509163029 | 77 | 149 | 0.0 | 0.0 | 0.00 | 0.22 | 0.01 | 63 | 1009.0 |
| 20260509161522 | 75 | 169 | 0.0 | 0.0 | 0.00 | 0.22 | 0.01 | 64 | 1009.1 |
| 20260509160020 | 75 | 151 | 0.0 | 0.0 | 0.00 | 0.22 | 0.01 | 65 | 1009.0 |
| 20260509154515 | 74 | 161 | 0.0 | 0.0 | 0.00 | 0.22 | 0.01 | 64 | 1008.9 |
| 20260509153028 | 72 | 117 | 0.0 | 0.0 | 0.00 | 0.22 | 0.01 | 66 | 1008.8 |
| 20260509151511 | 72 | 110 | 0.0 | 0.0 | 0.00 | 0.22 | 0.01 | 66 | 1008.7 |
| 20260509150007 | 71 | 109 | 0.0 | 0.0 | 0.00 | 0.22 | 0.01 | 77 | 1008.7 |
| 20260509144502 | 69 | 109 | 0.0 | 0.0 | 0.00 | 0.22 | 0.01 | 83 | 1008.5 |
| 20260509143059 | 66 | 131 | 0.0 | 0.0 | 0.00 | 0.22 | 0.01 | 89 | 1008.7 |
| 20260509141555 | 64 | 131 | 0.0 | 0.0 | 0.00 | 0.22 | 0.01 | 92 | 1009.0 |
| 20260509140105 | 62 | 131 | 0.0 | 0.0 | 0.00 | 0.22 | 0.01 | 94 | 1008.9 |
| 20260509134553 | 61 | 129 | 0.0 | 0.0 | 0.00 | 0.22 | 0.01 | 94 | 1008.8 |
| 20260509133049 | 61 | 128 | 0.0 | 0.0 | 0.00 | 0.22 | 0.01 | 95 | 1008.6 |
| 20260509131547 | 59 | 128 | 0.0 | 0.0 | 0.00 | 0.22 | 0.01 | 95 | 1008.4 |
| 20260509130047 | 58 | 128 | 0.0 | 0.0 | 0.00 | 0.22 | 0.01 | 95 | 1008.2 |
| 20260509124551 | 58 | 128 | 0.0 | 0.0 | 0.01 | 0.22 | 0.01 | 95 | 1008.0 |
| 20260509123045 | 56 | 128 | 0.0 | 0.0 | 0.01 | 0.22 | 0.01 | 96 | 1008.0 |
| 20260509121543 | 54 | 128 | 0.0 | 0.0 | 0.01 | 0.22 | 0.01 | 94 | 1007.8 |
| 20260509120045 | 54 | 128 | 0.0 | 0.0 | 0.01 | 0.22 | 0.01 | 94 | 1007.6 |
| 20260509114542 | 55 | 128 | 0.0 | 0.0 | 0.00 | 0.21 | 0.00 | 93 | 1007.5 |
| 20260509113040 | 55 | 128 | 0.0 | 0.0 | 0.00 | 0.21 | 0.00 | 93 | 1007.3 |
| 20260509111539 | 55 | 128 | 0.0 | 0.0 | 0.00 | 0.21 | 0.00 | 93 | 1007.2 |
| 20260509110038 | 55 | 128 | 0.0 | 0.0 | 0.00 | 0.21 | 0.00 | 93 | 1007.1 |
| 20260509104536 | 55 | 128 | 0.0 | 0.0 | 0.00 | 0.21 | 0.00 | 93 | 1007.1 |
| 20260509103038 | 55 | 128 | 0.0 | 0.0 | 0.00 | 0.21 | 0.00 | 93 | 1007.2 |